Rockrimmin Ridge, Pennsylvania
Current Conditions -  °F | °C
As of 1:53 PM on Saturday 25 Oct 2014 (Local Time) from KLNS Reporting Station
Clear Clear  
Wind Chill: 66°   Ceiling: Unl
Heat Index: 66°   Visibility: 10mi
Dew Point: 44°   Wind: 15mph
Humidity: 45%   Direction: 260°W
Pressure: 29.79"   Gusts: NA
Location:  40.0946°N, 76.1809°W
Report Text: KLNS 251753Z 26013KT 10SM CLR 19/07 A2979 RMK AO2 SLP087 T01890067 10189 20056 58035
Loading
Personal Weather Stations






























Interactive Weather Map
Tropical Storm Tracking
New forecast layout! Learn more

10-Day Weather Forecast

Advertisements
Track Severe Weather on mobile